Time;durP1;ratioP1;P1;durP2;ratioP2;P2;SDS_P1;SDS_P2;PMS_P1;PMS_P2;Temp;Humidity;BMP_temperature;BMP_pressure;BME280_temperature;BME280_humidity;BME280_pressure;Samples;Min_cycle;Max_cycle;Signal;HPM_P1;HPM_P2
2022/05/05 00:02:25;;;;;;;8.20;5.28;;;9.30;90.60;;;;;;4975588;28;103335;-71
2022/05/05 00:04:52;;;;;;;9.48;5.22;;;9.30;90.50;;;;;;4956597;28;95715;-71
2022/05/05 00:07:19;;;;;;;6.32;5.13;;;9.30;90.60;;;;;;4976181;28;92462;-71
2022/05/05 00:09:46;;;;;;;12.32;5.75;;;9.30;90.50;;;;;;4974612;28;92479;-71
2022/05/05 00:14:58;;;;;;;11.02;5.38;;;9.30;90.60;;;;;;4975816;28;93151;-71
2022/05/05 00:17:26;;;;;;;10.68;5.60;;;9.40;90.60;;;;;;4958237;28;92444;-71
2022/05/05 00:19:53;;;;;;;9.55;5.75;;;9.40;90.50;;;;;;4974298;28;92501;-71
2022/05/05 00:22:20;;;;;;;7.57;5.38;;;9.40;90.50;;;;;;4976234;28;93000;-71
2022/05/05 00:24:47;;;;;;;7.32;5.28;;;9.40;90.50;;;;;;4974353;28;92549;-71
2022/05/05 00:27:14;;;;;;;10.98;5.90;;;9.40;90.80;;;;;;4975651;28;92423;-71
2022/05/05 00:29:41;;;;;;;10.88;5.82;;;9.40;90.50;;;;;;4973197;28;94854;-71
2022/05/05 00:32:08;;;;;;;9.90;5.35;;;9.40;90.60;;;;;;4957828;28;94269;-71
2022/05/05 00:34:35;;;;;;;9.18;5.68;;;9.40;90.70;;;;;;4973968;28;95539;-71
2022/05/05 00:37:03;;;;;;;9.98;5.72;;;9.40;90.70;;;;;;4973990;28;92563;-71
2022/05/05 00:39:30;;;;;;;9.07;5.50;;;9.40;90.70;;;;;;4957844;28;92534;-71
2022/05/05 00:42:00;;;;;;;7.80;5.45;;;9.30;90.70;;;;;;4975316;28;93199;-71
2022/05/05 00:44:27;;;;;;;9.35;5.97;;;9.40;90.70;;;;;;4975494;28;92976;-71
2022/05/05 00:46:54;;;;;;;8.35;5.65;;;9.40;90.70;;;;;;4975737;28;91785;-71
2022/05/05 00:49:21;;;;;;;9.63;5.50;;;9.30;90.70;;;;;;4975689;28;92535;-71
2022/05/05 00:51:48;;;;;;;7.90;6.22;;;9.30;90.70;;;;;;4975343;28;93045;-71
2022/05/05 00:54:15;;;;;;;8.40;5.28;;;9.30;90.70;;;;;;4973914;28;94892;-71
2022/05/05 00:56:45;;;;;;;7.70;6.32;;;9.30;90.80;;;;;;4960889;28;92554;-71
2022/05/05 00:59:13;;;;;;;9.27;6.00;;;9.30;90.80;;;;;;4978825;28;92449;-71
2022/05/05 01:01:40;;;;;;;12.55;6.13;;;9.30;90.90;;;;;;4977089;28;93141;-71
2022/05/05 01:04:07;;;;;;;9.27;6.70;;;9.30;90.90;;;;;;4961021;28;92903;-71
2022/05/05 01:06:35;;;;;;;13.23;7.07;;;9.30;90.90;;;;;;4979119;28;92367;-71
2022/05/05 01:09:05;;;;;;;11.07;6.70;;;9.20;90.90;;;;;;4979021;28;92751;-71
2022/05/05 01:11:32;;;;;;;9.75;6.43;;;9.20;90.90;;;;;;4961019;28;95153;-71
2022/05/05 01:14:00;;;;;;;11.38;6.70;;;9.20;91.00;;;;;;4976596;28;93533;-71
2022/05/05 01:16:27;;;;;;;9.10;6.38;;;9.20;91.20;;;;;;4960863;28;92513;-71
2022/05/05 01:18:55;;;;;;;9.52;6.20;;;9.20;91.00;;;;;;4959662;28;94947;-71
2022/05/05 01:21:23;;;;;;;11.15;6.78;;;9.20;91.20;;;;;;4978185;28;93042;-71
2022/05/05 01:23:50;;;;;;;10.20;6.75;;;9.20;91.20;;;;;;4960634;28;93055;-71
2022/05/05 01:29:05;;;;;;;7.72;6.50;;;9.30;91.10;;;;;;4978453;28;92479;-71
2022/05/05 01:31:32;;;;;;;11.75;7.20;;;9.30;91.10;;;;;;4960667;28;95746;-71
2022/05/05 01:33:59;;;;;;;10.35;7.30;;;9.30;91.00;;;;;;4976447;28;95526;-71
2022/05/05 01:36:26;;;;;;;12.45;7.80;;;9.20;91.00;;;;;;4977343;28;91703;-71
2022/05/05 01:38:53;;;;;;;9.88;7.35;;;9.30;91.10;;;;;;4978338;28;92490;-71
2022/05/05 01:41:21;;;;;;;10.63;7.80;;;9.30;91.50;;;;;;4976399;28;95690;-71
2022/05/05 01:43:48;;;;;;;11.88;8.15;;;9.30;91.20;;;;;;4959405;28;94923;-71
2022/05/05 01:46:15;;;;;;;10.63;8.57;;;9.30;91.20;;;;;;4976727;28;92478;-71
2022/05/05 01:48:42;;;;;;;10.75;8.10;;;9.30;91.10;;;;;;4978259;28;92504;-71
2022/05/05 01:51:09;;;;;;;11.23;8.48;;;9.30;91.10;;;;;;4960279;28;93855;-71
2022/05/05 01:53:36;;;;;;;13.35;8.73;;;9.30;91.10;;;;;;4960025;28;95542;-71
2022/05/05 01:56:12;;;;;;;12.63;8.15;;;9.30;91.00;;;;;;4976663;28;92438;-71
2022/05/05 01:58:44;;;;;;;11.45;8.40;;;9.30;91.10;;;;;;4976972;28;92452;-71
2022/05/05 02:01:12;;;;;;;11.68;7.82;;;9.30;91.00;;;;;;4978110;28;92247;-71
2022/05/05 02:03:39;;;;;;;13.43;8.60;;;9.20;91.00;;;;;;4977731;28;92401;-71
2022/05/05 02:06:07;;;;;;;11.77;9.52;;;9.30;91.10;;;;;;4977787;28;92460;-71
2022/05/05 02:08:36;;;;;;;12.23;9.35;;;9.30;91.50;;;;;;4958182;28;94932;-71
2022/05/05 02:11:03;;;;;;;12.43;9.77;;;9.30;91.20;;;;;;4959457;28;95708;-71
2022/05/05 02:13:30;;;;;;;15.23;10.13;;;9.20;91.20;;;;;;4959884;28;95805;-71
2022/05/05 02:15:58;;;;;;;13.52;10.18;;;9.20;91.30;;;;;;4975651;28;92985;-71
2022/05/05 02:18:25;;;;;;;14.55;9.65;;;9.20;91.20;;;;;;4976915;28;92516;-71
2022/05/05 02:20:52;;;;;;;13.85;10.50;;;9.20;91.40;;;;;;4975506;28;93223;-71
2022/05/05 02:23:19;;;;;;;13.98;9.90;;;9.20;91.40;;;;;;4958782;28;97915;-71
2022/05/05 02:25:45;;;;;;;15.57;10.00;;;9.20;91.70;;;;;;4976697;28;91654;-71
2022/05/05 02:28:12;;;;;;;13.27;8.98;;;9.20;91.60;;;;;;4976580;28;92472;-71
2022/05/05 02:30:39;;;;;;;14.65;10.43;;;9.10;91.40;;;;;;4959534;28;93341;-71
2022/05/05 02:33:06;;;;;;;14.45;9.65;;;9.10;91.40;;;;;;4957261;28;95725;-71
2022/05/05 02:35:33;;;;;;;14.05;9.13;;;9.10;91.50;;;;;;4959398;28;92552;-71
2022/05/05 02:40:46;;;;;;;13.02;9.30;;;9.10;91.50;;;;;;4977105;28;93406;-71
2022/05/05 02:43:13;;;;;;;12.80;9.63;;;9.00;91.50;;;;;;4976801;28;93107;-71
2022/05/05 02:45:40;;;;;;;11.90;9.30;;;9.00;91.60;;;;;;4977099;28;92950;-71
2022/05/05 02:48:07;;;;;;;14.55;9.60;;;9.00;91.60;;;;;;4976682;28;93291;-71
2022/05/05 02:50:34;;;;;;;14.73;10.23;;;9.00;91.60;;;;;;4976793;28;92612;-71
2022/05/05 02:54:47;;;;;;;12.60;9.52;;;8.90;91.60;;;;;;4976469;28;92740;-71
2022/05/05 02:55:53;;;;;;;13.32;9.63;;;8.90;91.70;;;;;;4959268;28;92533;-71
2022/05/05 02:58:20;;;;;;;14.40;11.32;;;8.80;91.80;;;;;;4958042;28;94908;-71
2022/05/05 03:00:47;;;;;;;14.25;10.48;;;8.80;92.00;;;;;;4975633;28;93331;-72
2022/05/05 03:03:14;;;;;;;14.63;10.20;;;8.80;92.00;;;;;;4975864;28;93034;-71
2022/05/05 03:05:41;;;;;;;13.60;10.23;;;8.70;92.10;;;;;;4975529;28;92998;-71
2022/05/05 03:08:08;;;;;;;14.20;10.73;;;8.70;92.10;;;;;;4976250;28;92535;-71
2022/05/05 03:10:35;;;;;;;13.73;10.23;;;8.70;92.20;;;;;;4957938;28;95854;-71
2022/05/05 03:13:02;;;;;;;12.50;9.88;;;8.60;92.20;;;;;;4975828;28;93083;-71
2022/05/05 03:15:30;;;;;;;13.95;11.77;;;8.60;92.30;;;;;;4975580;28;92201;-71
2022/05/05 03:17:57;;;;;;;14.48;10.77;;;8.50;92.30;;;;;;4975903;28;92425;-71
2022/05/05 03:20:24;;;;;;;14.65;11.18;;;8.50;92.60;;;;;;4972188;28;112242;-71
2022/05/05 03:22:51;;;;;;;17.85;11.13;;;8.50;92.80;;;;;;4973454;28;95285;-71
2022/05/05 03:25:18;;;;;;;17.80;12.32;;;8.50;92.90;;;;;;4974811;28;92401;-71
2022/05/05 03:27:45;;;;;;;17.08;12.07;;;8.50;93.10;;;;;;4975750;28;92429;-71
2022/05/05 03:30:12;;;;;;;17.63;11.25;;;8.50;93.30;;;;;;4957984;28;95768;-71
2022/05/05 03:32:39;;;;;;;13.73;11.20;;;8.40;93.20;;;;;;4974493;28;93066;-71
2022/05/05 03:35:06;;;;;;;15.02;11.00;;;8.40;93.00;;;;;;4975923;28;92365;-71
2022/05/05 03:37:33;;;;;;;16.58;11.15;;;8.40;93.00;;;;;;4957826;28;92596;-71
2022/05/05 03:40:00;;;;;;;14.20;10.70;;;8.30;92.90;;;;;;4976116;28;92342;-71
2022/05/05 03:42:27;;;;;;;19.33;12.13;;;8.30;92.90;;;;;;4957689;28;96226;-71
2022/05/05 03:44:54;;;;;;;14.00;11.07;;;8.30;92.90;;;;;;4958098;28;92486;-71
2022/05/05 03:47:21;;;;;;;20.08;12.45;;;8.30;92.90;;;;;;4957012;28;96660;-71
2022/05/05 03:49:48;;;;;;;14.65;11.77;;;8.30;93.00;;;;;;4957617;28;95720;-71
2022/05/05 03:52:15;;;;;;;21.10;12.13;;;8.30;93.10;;;;;;4974381;28;93025;-71
2022/05/05 03:54:42;;;;;;;17.25;11.43;;;8.20;93.10;;;;;;4975480;28;92404;-71
2022/05/05 03:57:09;;;;;;;19.30;11.23;;;8.20;93.20;;;;;;4975770;28;92469;-71
2022/05/05 03:59:36;;;;;;;18.45;12.35;;;8.20;93.30;;;;;;4975334;28;93115;-71
2022/05/05 04:02:03;;;;;;;14.45;11.77;;;8.20;93.30;;;;;;4974256;28;93152;-71
2022/05/05 04:04:30;;;;;;;17.30;12.27;;;8.20;93.30;;;;;;4975632;28;91745;-71
2022/05/05 04:06:57;;;;;;;17.98;11.45;;;8.30;93.30;;;;;;4974244;28;93206;-71
2022/05/05 04:09:24;;;;;;;19.08;13.02;;;8.30;93.30;;;;;;4973590;28;93325;-71
2022/05/05 04:11:50;;;;;;;13.77;12.02;;;8.30;93.40;;;;;;4972994;28;94880;-71
2022/05/05 04:14:17;;;;;;;14.10;11.57;;;8.40;93.40;;;;;;4975221;28;101401;-71
2022/05/05 04:16:44;;;;;;;17.85;11.80;;;8.40;93.30;;;;;;4957616;28;92466;-71
2022/05/05 04:19:11;;;;;;;18.02;12.27;;;8.50;93.20;;;;;;4975116;28;93236;-71
2022/05/05 04:21:38;;;;;;;17.20;12.15;;;8.60;93.10;;;;;;4973571;28;93021;-71
2022/05/05 04:24:06;;;;;;;17.23;13.07;;;8.70;93.00;;;;;;4975354;28;92866;-71
2022/05/05 04:26:33;;;;;;;18.58;12.60;;;8.80;93.00;;;;;;4975364;28;92332;-71
2022/05/05 04:29:01;;;;;;;15.68;12.52;;;8.80;93.00;;;;;;4973990;28;92529;-71
2022/05/05 04:31:29;;;;;;;14.63;11.85;;;9.00;92.90;;;;;;4980498;28;92911;-71
2022/05/05 04:33:57;;;;;;;16.67;12.82;;;9.10;92.80;;;;;;4980613;28;93143;-71
2022/05/05 04:36:24;;;;;;;15.20;12.20;;;9.20;92.70;;;;;;4980075;28;94820;-71
2022/05/05 04:38:51;;;;;;;17.23;12.13;;;9.30;92.60;;;;;;4963414;28;95891;-71
2022/05/05 04:41:18;;;;;;;20.83;11.63;;;9.40;92.40;;;;;;4981726;28;93093;-71
2022/05/05 04:43:45;;;;;;;15.25;11.73;;;9.60;92.20;;;;;;4980460;28;92442;-71
2022/05/05 04:46:12;;;;;;;16.67;11.50;;;9.80;91.90;;;;;;4980191;28;92515;-72
2022/05/05 04:48:39;;;;;;;15.07;11.50;;;10.00;91.70;;;;;;4981102;28;93346;-71
2022/05/05 04:51:06;;;;;;;15.07;11.35;;;10.10;91.40;;;;;;4963404;28;95539;-71
2022/05/05 04:53:33;;;;;;;12.57;11.23;;;10.30;91.20;;;;;;4980167;28;92191;-71
2022/05/05 04:56:00;;;;;;;13.82;10.77;;;10.40;90.80;;;;;;4963724;28;95737;-71
2022/05/05 04:58:27;;;;;;;14.43;11.23;;;10.50;90.60;;;;;;4979915;28;92978;-72
2022/05/05 05:00:53;;;;;;;15.43;11.40;;;10.60;90.40;;;;;;4980365;28;94810;-71
2022/05/05 05:03:33;;;;;;;18.92;12.10;;;10.70;90.30;;;;;;4981538;28;92747;-71
2022/05/05 05:06:01;;;;;;;15.18;10.23;;;10.70;90.10;;;;;;4979754;28;93280;-71
2022/05/05 05:08:29;;;;;;;12.95;10.70;;;10.80;90.00;;;;;;4979118;28;93281;-72
2022/05/05 05:10:57;;;;;;;16.17;10.98;;;10.80;90.00;;;;;;4980951;28;92474;-71
2022/05/05 05:13:24;;;;;;;17.98;11.25;;;10.80;89.80;;;;;;4981270;28;92456;-71
2022/05/05 05:15:52;;;;;;;16.95;10.93;;;10.90;89.60;;;;;;4963321;28;92510;-72
2022/05/05 05:18:19;;;;;;;11.85;10.23;;;10.90;89.30;;;;;;4963469;28;91726;-72
2022/05/05 05:20:46;;;;;;;13.70;11.55;;;10.90;89.10;;;;;;4979095;28;92505;-72
2022/05/05 05:23:13;;;;;;;14.48;10.05;;;11.00;89.00;;;;;;4981370;28;92403;-71
2022/05/05 05:25:41;;;;;;;14.23;9.98;;;11.00;88.70;;;;;;4978399;28;94894;-72
2022/05/05 05:28:07;;;;;;;12.00;10.35;;;11.10;88.50;;;;;;4979734;28;93259;-72
2022/05/05 05:30:39;;;;;;;14.63;10.40;;;11.20;88.10;;;;;;4979665;28;92520;-72
2022/05/05 05:33:07;;;;;;;10.95;9.80;;;11.30;87.90;;;;;;4963221;28;92508;-71
2022/05/05 05:35:34;;;;;;;15.35;9.60;;;11.40;87.40;;;;;;4963102;28;92467;-72
2022/05/05 05:38:01;;;;;;;12.45;9.20;;;11.50;86.80;;;;;;4963719;28;92998;-72
2022/05/05 05:40:28;;;;;;;12.55;9.68;;;11.60;86.30;;;;;;4981177;28;92445;-72
2022/05/05 05:42:55;;;;;;;12.85;9.57;;;11.80;86.00;;;;;;4976573;28;92065;-72
2022/05/05 05:45:23;;;;;;;10.40;9.27;;;11.80;85.40;;;;;;4960240;28;92529;-72
2022/05/05 05:47:51;;;;;;;11.70;9.15;;;12.00;85.00;;;;;;4959702;28;95760;-72
2022/05/05 05:50:18;;;;;;;13.70;10.00;;;12.10;84.70;;;;;;4976507;28;94844;-72
2022/05/05 05:52:45;;;;;;;15.25;10.18;;;12.20;84.30;;;;;;4959729;28;92529;-72
2022/05/05 05:55:12;;;;;;;11.68;10.45;;;12.30;84.00;;;;;;4977156;28;92460;-72
2022/05/05 05:57:39;;;;;;;12.65;9.65;;;12.50;83.90;;;;;;4975645;28;93651;-72
2022/05/05 06:00:07;;;;;;;14.15;9.77;;;12.60;83.20;;;;;;4977351;28;93060;-72
2022/05/05 06:05:26;;;;;;;20.45;10.68;;;13.00;82.40;;;;;;4959408;28;92392;-72
2022/05/05 06:08:00;;;;;;;12.85;10.38;;;13.20;82.00;;;;;;4977107;28;92593;-72
2022/05/05 06:10:28;;;;;;;12.88;10.23;;;13.40;81.00;;;;;;4976831;28;92515;-72
2022/05/05 06:12:55;;;;;;;11.90;9.82;;;13.50;80.40;;;;;;4975376;28;92557;-72
2022/05/05 06:15:23;;;;;;;12.93;10.15;;;13.60;80.30;;;;;;4975996;28;94884;-72
2022/05/05 06:17:50;;;;;;;14.55;10.15;;;13.80;80.10;;;;;;4958460;28;95693;-72
2022/05/05 06:20:18;;;;;;;16.48;10.27;;;13.80;79.80;;;;;;4975877;28;93064;-72
2022/05/05 06:22:45;;;;;;;16.45;10.93;;;14.00;79.40;;;;;;4976668;28;92655;-72
2022/05/05 06:25:12;;;;;;;11.27;9.98;;;14.10;78.70;;;;;;4976656;28;92505;-72
2022/05/05 06:27:40;;;;;;;11.38;9.93;;;14.30;78.20;;;;;;4974936;28;93222;-72
2022/05/05 06:30:10;;;;;;;12.50;10.50;;;14.40;77.90;;;;;;4959336;28;94337;-72
2022/05/05 06:32:37;;;;;;;12.98;10.35;;;14.50;77.70;;;;;;4975342;28;91744;-72
2022/05/05 06:35:04;;;;;;;14.30;10.02;;;14.60;77.40;;;;;;4958661;28;92475;-72
2022/05/05 06:37:31;;;;;;;11.02;9.30;;;14.80;76.80;;;;;;4958398;28;96076;-72
2022/05/05 06:40:00;;;;;;;10.57;8.50;;;15.00;76.30;;;;;;4975379;28;94854;-72
2022/05/05 06:42:30;;;;;;;10.75;8.45;;;15.10;76.00;;;;;;4959257;28;92496;-71
2022/05/05 06:44:57;;;;;;;13.45;8.88;;;15.40;75.40;;;;;;4976606;28;92466;-72
2022/05/05 06:47:25;;;;;;;11.20;8.65;;;15.50;75.00;;;;;;4975285;28;92999;-72
2022/05/05 06:49:52;;;;;;;11.25;8.73;;;15.70;74.40;;;;;;4974839;28;95467;-72
2022/05/05 06:52:19;;;;;;;8.80;7.88;;;15.80;74.10;;;;;;4976764;28;92349;-72
2022/05/05 06:55:05;;;;;;;11.40;8.57;;;15.90;73.60;;;;;;4975760;28;92468;-72
2022/05/05 06:57:32;;;;;;;11.98;8.93;;;16.10;73.90;;;;;;4959442;28;92429;-72
2022/05/05 06:59:59;;;;;;;8.45;7.53;;;16.20;73.80;;;;;;4974828;28;94812;-72
2022/05/05 07:02:26;;;;;;;13.90;8.65;;;16.40;72.70;;;;;;4974793;28;92532;-72
2022/05/05 07:07:38;;;;;;;10.85;8.32;;;16.60;71.70;;;;;;4976501;28;93396;-72
2022/05/05 07:12:51;;;;;;;10.98;8.75;;;16.90;70.90;;;;;;4976563;28;93054;-72
2022/05/05 07:15:18;;;;;;;11.80;8.00;;;17.00;70.00;;;;;;4958645;28;92922;-72
2022/05/05 07:17:46;;;;;;;9.90;8.10;;;17.10;69.40;;;;;;4975937;28;95777;-72
2022/05/05 07:20:13;;;;;;;10.80;8.80;;;17.20;69.20;;;;;;4970873;28;95465;-72
2022/05/05 07:22:40;;;;;;;11.95;7.80;;;17.30;68.90;;;;;;4957359;28;92098;-72
2022/05/05 07:25:08;;;;;;;10.43;8.20;;;17.30;68.70;;;;;;4955227;28;92968;-72
2022/05/05 07:27:35;;;;;;;10.57;8.88;;;17.40;68.30;;;;;;4956417;28;93268;-72
2022/05/05 07:30:03;;;;;;;15.30;8.88;;;17.50;68.00;;;;;;4955091;28;95201;-72
2022/05/05 07:32:29;;;;;;;11.50;8.25;;;17.60;67.80;;;;;;4956794;28;92364;-72
2022/05/05 07:34:59;;;;;;;15.43;7.55;;;17.70;67.50;;;;;;4955013;28;93040;-72
2022/05/05 07:37:26;;;;;;;13.15;8.35;;;17.80;66.90;;;;;;4956529;28;93052;-72
2022/05/05 07:39:53;;;;;;;12.82;8.00;;;17.90;66.40;;;;;;4956124;28;92332;-72
2022/05/05 07:42:20;;;;;;;10.88;8.43;;;18.00;65.80;;;;;;4971686;28;92437;-72
2022/05/05 07:44:47;;;;;;;12.90;7.20;;;18.10;65.30;;;;;;4956391;28;93026;-72
2022/05/05 07:47:14;;;;;;;11.70;8.07;;;18.10;64.80;;;;;;4955187;28;95009;-72
2022/05/05 07:49:41;;;;;;;9.63;6.13;;;18.20;64.70;;;;;;4971221;28;92562;-72
2022/05/05 07:52:08;;;;;;;9.48;7.03;;;18.30;63.30;;;;;;4954862;28;92470;-72
2022/05/05 07:54:36;;;;;;;11.32;7.05;;;18.40;63.00;;;;;;4953405;28;94910;-72
2022/05/05 07:57:05;;;;;;;10.75;8.25;;;18.50;62.60;;;;;;4954761;28;93249;-72
2022/05/05 07:59:32;;;;;;;10.07;6.88;;;18.60;62.10;;;;;;4954872;28;95564;-72
2022/05/05 08:02:00;;;;;;;10.73;7.35;;;18.60;61.70;;;;;;4955950;28;92493;-72
2022/05/05 08:04:27;;;;;;;6.63;5.47;;;18.60;62.10;;;;;;4955488;28;92433;-72
2022/05/05 08:06:54;;;;;;;9.90;5.72;;;18.60;61.70;;;;;;4970194;28;106404;-72
2022/05/05 08:09:21;;;;;;;7.85;5.60;;;18.70;60.20;;;;;;4955833;28;93012;-72
2022/05/05 08:12:00;;;;;;;9.48;6.75;;;18.60;59.40;;;;;;4956545;28;91609;-72
2022/05/05 08:14:28;;;;;;;10.82;7.25;;;18.70;59.90;;;;;;4971208;28;92471;-72
2022/05/05 08:16:55;;;;;;;10.50;7.32;;;18.70;60.00;;;;;;4954338;28;93281;-72
2022/05/05 08:19:22;;;;;;;10.68;6.65;;;18.70;59.70;;;;;;4954577;28;94919;-72
2022/05/05 08:21:50;;;;;;;11.43;8.18;;;18.70;59.90;;;;;;4970520;28;92565;-72
2022/05/05 08:29:48;;;;;;;9.77;7.13;;;18.80;60.80;;;;;;4954341;28;95698;-72
2022/05/05 08:32:15;;;;;;;11.13;7.47;;;18.80;61.30;;;;;;4970466;28;92441;-72
2022/05/05 08:34:42;;;;;;;10.70;7.15;;;18.80;60.70;;;;;;4956008;28;92431;-72
2022/05/05 08:37:09;;;;;;;10.85;7.72;;;18.80;60.60;;;;;;4970789;28;92933;-72
2022/05/05 08:39:36;;;;;;;9.93;6.75;;;18.90;60.30;;;;;;4955503;28;92547;-72
2022/05/05 08:42:04;;;;;;;10.07;7.50;;;19.00;60.10;;;;;;4970149;28;92592;-72
2022/05/05 08:44:31;;;;;;;9.00;6.22;;;19.10;59.50;;;;;;4952980;28;95415;-72
2022/05/05 08:46:59;;;;;;;9.88;7.80;;;19.20;59.30;;;;;;4970223;28;95869;-72
2022/05/05 08:49:26;;;;;;;9.88;6.78;;;19.30;58.80;;;;;;4955353;28;92376;-72
2022/05/05 08:51:54;;;;;;;9.85;6.40;;;19.30;58.70;;;;;;4955694;28;92461;-72
2022/05/05 08:54:23;;;;;;;8.82;6.70;;;19.40;58.60;;;;;;4955466;28;92415;-72
2022/05/05 08:56:50;;;;;;;12.25;7.47;;;19.50;58.40;;;;;;4970522;28;93409;-74
2022/05/05 08:59:18;;;;;;;8.13;6.60;;;19.60;58.10;;;;;;4954421;28;107213;-72
2022/05/05 09:01:46;;;;;;;11.63;7.13;;;19.70;58.00;;;;;;4955877;28;91693;-71
2022/05/05 09:04:13;;;;;;;12.13;6.97;;;19.90;57.70;;;;;;4955297;28;92444;-72
2022/05/05 09:06:44;;;;;;;8.73;7.93;;;20.00;57.20;;;;;;4955337;28;93172;-71
2022/05/05 09:09:32;;;;;;;7.88;6.78;;;20.20;57.10;;;;;;4953959;28;94824;-71
2022/05/05 09:12:14;;;;;;;6.35;5.75;;;20.50;55.80;;;;;;4955076;28;92384;-71
2022/05/05 09:14:49;;;;;;;8.93;5.90;;;20.70;55.20;;;;;;4953997;28;92441;-72
2022/05/05 09:17:23;;;;;;;6.82;5.80;;;20.80;54.70;;;;;;4955869;28;93305;-72
2022/05/05 09:19:54;;;;;;;9.82;6.68;;;20.90;54.80;;;;;;4959238;28;93079;-71
2022/05/05 09:22:27;;;;;;;8.95;6.45;;;21.20;53.80;;;;;;4978242;28;92360;-71
2022/05/05 09:24:56;;;;;;;8.90;7.90;;;21.40;53.70;;;;;;4960700;28;92945;-71
2022/05/05 09:27:26;;;;;;;8.25;7.07;;;21.50;52.60;;;;;;4977544;28;102801;-71
2022/05/05 09:30:09;;;;;;;9.90;7.60;;;21.50;52.30;;;;;;4977599;28;92488;-71
2022/05/05 09:32:37;;;;;;;7.60;6.38;;;21.80;51.80;;;;;;4978050;28;92503;-71
2022/05/05 09:35:17;;;;;;;8.80;6.60;;;21.90;51.80;;;;;;4976264;28;96264;-71
2022/05/05 09:37:52;;;;;;;8.43;7.60;;;22.00;51.40;;;;;;4959913;28;95726;-71
2022/05/05 09:40:24;;;;;;;8.27;6.72;;;22.20;50.30;;;;;;4960929;28;92994;-73
2022/05/05 09:43:04;;;;;;;7.63;6.68;;;22.20;50.60;;;;;;4960470;28;92495;-73
2022/05/05 09:45:55;;;;;;;9.77;7.78;;;22.30;50.50;;;;;;4978047;28;92469;-73
2022/05/05 09:48:35;;;;;;;8.18;6.78;;;22.50;50.50;;;;;;4974163;28;93365;-71
2022/05/05 09:51:02;;;;;;;11.75;7.80;;;22.50;50.60;;;;;;4977202;28;93052;-71
2022/05/05 10:05:50;;;;;;;8.05;7.10;;;23.20;47.90;;;;;;4976580;28;92473;-71
2022/05/05 10:12:01;;;;;;;7.75;7.05;;;23.30;48.00;;;;;;4974842;28;93312;-71
2022/05/05 10:14:33;;;;;;;9.90;7.22;;;23.40;49.10;;;;;;4975460;28;93043;-71
2022/05/05 10:17:17;;;;;;;11.23;9.13;;;23.60;47.80;;;;;;4975902;28;93304;-71
2022/05/05 10:20:23;;;;;;;9.30;8.40;;;23.80;46.10;;;;;;4966193;28;92513;-71
2022/05/05 10:23:28;;;;;;;8.00;7.22;;;23.90;46.30;;;;;;4935314;28;93544;-71
2022/05/05 10:25:55;;;;;;;13.43;9.13;;;23.80;46.30;;;;;;4977146;28;92414;-71
2022/05/05 10:28:53;;;;;;;8.55;7.53;;;23.70;46.30;;;;;;4958740;28;93178;-71
2022/05/05 10:31:34;;;;;;;9.07;7.80;;;23.70;46.50;;;;;;4958060;28;94907;-71
2022/05/05 10:34:02;;;;;;;9.60;8.65;;;23.40;46.50;;;;;;4976869;28;93139;-71
2022/05/05 10:37:14;;;;;;;7.55;6.70;;;23.40;47.00;;;;;;4966197;28;92912;-71
2022/05/05 10:40:13;;;;;;;10.07;6.63;;;23.30;47.30;;;;;;4975132;28;92527;-71
2022/05/05 10:42:57;;;;;;;8.85;7.32;;;23.30;48.60;;;;;;4959114;28;92525;-71
2022/05/05 10:45:37;;;;;;;8.32;7.47;;;23.50;47.50;;;;;;4976512;28;93269;-71
2022/05/05 10:48:51;;;;;;;8.43;7.72;;;23.60;46.50;;;;;;4951439;28;96261;-71
2022/05/05 10:51:32;;;;;;;9.65;8.13;;;23.60;46.70;;;;;;4976980;28;91706;-71
2022/05/05 10:54:27;;;;;;;9.05;8.13;;;23.50;47.30;;;;;;4976582;28;92432;-71
2022/05/05 10:57:30;;;;;;;8.52;6.90;;;23.70;46.80;;;;;;4958652;28;95666;-71
2022/05/05 11:00:18;;;;;;;8.35;7.25;;;23.90;46.70;;;;;;4957424;28;95710;-71
2022/05/05 11:02:58;;;;;;;9.48;8.60;;;23.90;46.60;;;;;;4976627;28;92918;-71
2022/05/05 11:05:33;;;;;;;8.55;7.53;;;24.10;46.60;;;;;;4976364;28;92886;-71
2022/05/05 11:08:09;;;;;;;8.43;7.63;;;24.30;46.10;;;;;;4959112;28;93585;-71
2022/05/05 11:10:47;;;;;;;10.38;7.10;;;24.40;45.80;;;;;;4975656;28;93011;-71
2022/05/05 11:13:36;;;;;;;10.50;9.07;;;24.50;45.30;;;;;;4976307;28;92509;-71
2022/05/05 11:22:17;;;;;;;8.32;7.20;;;24.90;44.20;;;;;;4975620;28;92787;-71
2022/05/05 11:24:47;;;;;;;9.13;7.78;;;25.00;43.50;;;;;;4976668;28;92918;-71
2022/05/05 11:27:19;;;;;;;9.52;7.18;;;25.10;44.10;;;;;;4973555;28;95024;-71
2022/05/05 11:29:53;;;;;;;9.98;8.27;;;25.30;43.90;;;;;;4976190;28;92496;-71
2022/05/05 11:32:29;;;;;;;9.50;8.50;;;25.30;44.10;;;;;;4958695;28;93042;-71
2022/05/05 11:34:56;;;;;;;8.88;7.85;;;25.30;43.40;;;;;;4976520;28;92471;-73
2022/05/05 11:37:26;;;;;;;9.45;8.45;;;25.20;42.90;;;;;;4974354;28;92503;-71
2022/05/05 11:39:53;;;;;;;9.85;8.95;;;24.90;42.80;;;;;;4974698;28;93270;-71
2022/05/05 11:42:20;;;;;;;9.93;8.48;;;24.50;43.30;;;;;;4975392;28;92930;-71
2022/05/05 11:44:48;;;;;;;12.90;10.13;;;24.40;43.80;;;;;;4975313;28;91750;-71
2022/05/05 11:47:20;;;;;;;10.13;9.10;;;24.30;44.00;;;;;;4957654;28;92463;-72
2022/05/05 11:49:52;;;;;;;15.48;8.52;;;24.30;44.20;;;;;;4974578;28;92511;-71
2022/05/05 11:52:21;;;;;;;13.67;9.03;;;24.20;44.30;;;;;;4974381;28;95254;-72
2022/05/05 11:54:57;;;;;;;8.35;7.53;;;24.10;44.30;;;;;;4957992;28;92570;-72
2022/05/05 11:57:37;;;;;;;8.70;7.60;;;24.10;44.90;;;;;;4975769;28;92396;-72
2022/05/05 12:02:54;;;;;;;13.27;7.93;;;24.00;45.50;;;;;;4957745;28;94021;-72
2022/05/05 12:05:22;;;;;;;9.50;8.07;;;24.10;44.50;;;;;;4975393;28;92530;-72
2022/05/05 12:07:51;;;;;;;8.40;7.60;;;24.10;44.50;;;;;;4958371;28;92769;-72
2022/05/05 12:10:19;;;;;;;9.27;7.70;;;24.20;44.30;;;;;;4974078;28;93358;-72
2022/05/05 12:12:50;;;;;;;8.38;7.00;;;24.10;44.40;;;;;;4975418;28;92441;-71
2022/05/05 12:15:20;;;;;;;9.07;7.68;;;24.20;43.70;;;;;;4975703;28;92506;-72
2022/05/05 12:17:50;;;;;;;7.20;6.60;;;24.10;43.50;;;;;;4974387;28;94881;-72
2022/05/05 12:20:21;;;;;;;7.15;6.30;;;24.00;44.00;;;;;;4975246;28;94109;-72
2022/05/05 12:22:57;;;;;;;6.22;5.63;;;23.80;44.30;;;;;;4956750;28;94088;-72
2022/05/05 12:25:25;;;;;;;8.05;6.07;;;23.60;45.20;;;;;;4973690;28;92462;-72
2022/05/05 12:28:01;;;;;;;9.27;7.32;;;23.50;46.20;;;;;;4975370;28;92576;-72
2022/05/05 12:30:37;;;;;;;7.78;6.95;;;23.50;45.90;;;;;;4974570;28;93129;-72
2022/05/05 12:33:05;;;;;;;10.25;8.40;;;23.30;45.60;;;;;;4957356;28;95661;-72
2022/05/05 12:35:40;;;;;;;6.93;6.25;;;23.20;45.80;;;;;;4957466;28;91696;-72
2022/05/05 12:38:08;;;;;;;7.05;6.35;;;23.10;46.00;;;;;;4973138;28;92456;-72
2022/05/05 12:40:37;;;;;;;6.45;5.53;;;23.20;46.10;;;;;;4974662;28;93406;-71
2022/05/05 12:43:17;;;;;;;6.65;6.00;;;23.30;45.90;;;;;;4973885;28;94829;-72
2022/05/05 12:45:46;;;;;;;6.13;5.53;;;23.10;45.30;;;;;;4975120;28;92467;-72
2022/05/05 12:48:13;;;;;;;6.85;5.95;;;23.10;46.10;;;;;;4941234;28;92577;-72
2022/05/05 12:50:52;;;;;;;6.18;5.57;;;23.20;46.00;;;;;;4957160;28;93254;-72
2022/05/05 13:01:54;;;;;;;6.20;4.40;;;23.00;45.80;;;;;;4960710;28;95174;-71
2022/05/05 13:04:22;;;;;;;4.97;4.47;;;23.10;45.90;;;;;;4978535;28;92956;-72
2022/05/05 13:06:51;;;;;;;6.85;4.43;;;23.10;45.20;;;;;;4944134;28;92521;-72
2022/05/05 13:09:18;;;;;;;5.28;4.78;;;23.20;45.30;;;;;;4976924;28;95302;-72
2022/05/05 13:11:51;;;;;;;4.88;3.63;;;23.30;45.30;;;;;;4977389;28;93286;-71
2022/05/05 13:14:20;;;;;;;5.22;4.68;;;23.40;45.20;;;;;;4960287;28;92905;-72
2022/05/05 13:16:48;;;;;;;4.15;3.83;;;23.30;45.20;;;;;;4959972;28;92635;-72
2022/05/05 13:19:15;;;;;;;5.45;4.60;;;23.20;45.20;;;;;;4978399;28;92428;-72
2022/05/05 13:21:42;;;;;;;5.40;4.90;;;23.30;45.90;;;;;;4977146;28;93266;-72
2022/05/05 13:24:10;;;;;;;5.65;5.15;;;23.60;45.70;;;;;;4960593;28;93128;-72
2022/05/05 13:26:40;;;;;;;5.80;4.10;;;24.00;44.90;;;;;;4978144;28;91694;-72
2022/05/05 13:29:07;;;;;;;6.22;4.80;;;24.30;44.60;;;;;;4978078;28;92389;-72
2022/05/05 13:31:34;;;;;;;5.53;4.50;;;24.30;43.30;;;;;;4960095;28;93191;-72
2022/05/05 13:34:01;;;;;;;5.15;3.60;;;24.20;43.20;;;;;;4976502;28;95444;-72
2022/05/05 13:36:28;;;;;;;5.18;4.75;;;24.20;42.90;;;;;;4960658;28;92932;-72
2022/05/05 13:38:56;;;;;;;4.63;4.07;;;24.20;42.50;;;;;;4977426;28;92472;-71
2022/05/05 13:41:32;;;;;;;4.97;4.47;;;24.30;42.50;;;;;;4959826;28;94690;-71
2022/05/05 13:44:00;;;;;;;5.55;5.05;;;24.40;42.00;;;;;;4977545;28;92955;-71
2022/05/05 13:46:28;;;;;;;5.00;3.25;;;24.40;41.80;;;;;;4977660;28;92958;-71
2022/05/05 13:48:55;;;;;;;6.05;3.20;;;24.40;42.00;;;;;;4960348;28;92540;-71
2022/05/05 13:51:22;;;;;;;5.47;5.05;;;24.30;42.60;;;;;;4960026;28;91698;-71